Gross, Kansas
Current Conditions -  °F | °C
As of 1:15 PM on Friday 21 Nov 2014 (Local Time) from KPTS Reporting Station
Overcast Overcast  
Wind Chill: 50°   Ceiling: 1700
Heat Index: 50°   Visibility: 7mi
Dew Point: 50°   Wind: 8mph
Humidity: 99%   Direction: 140°SE
Pressure: 30.1"   Gusts: NA
Location:  37.6277°N, 94.7013°W
Report Text: KPTS 211915Z AUTO 14007KT 7SM OVC017 10/10 A3010 RMK AO2 T01020101
Loading
Personal Weather Stations






























Interactive Weather Map New forecast layout! Learn more

10-Day Weather Forecast

Advertisements
Track Severe Weather on mobile